Time;durP1;ratioP1;P1;durP2;ratioP2;P2;SDS_P1;SDS_P2;PMS_P1;PMS_P2;Temp;Humidity;BMP_temperature;BMP_pressure;BME280_temperature;BME280_humidity;BME280_pressure;Samples;Min_cycle;Max_cycle;Signal;HPM_P1;HPM_P2
2023/06/05 05:52:45;;;;;;;7;5.1;;;;;;;16.54;89.15918;937.4727;;;;
2023/06/05 05:55:21;;;;;;;7;5.3;;;;;;;16.75;88.72656;937.4885;;;;
2023/06/05 05:57:58;;;;;;;6.8;5.7;;;;;;;16.79;88.63184;937.5023;;;;
2023/06/05 06:00:31;;;;;;;8.4;5.7;;;;;;;16.62;88.63184;937.5184;;;;
2023/06/05 06:03:06;;;;;;;6.6;5.1;;;;;;;16.47;89.01758;937.4937;;;;
2023/06/05 06:05:31;;;;;;;6.8;4.9;;;;;;;16.47;88.20703;937.509;;;;
2023/06/05 06:07:56;;;;;;;5.3;4.7;;;;;;;16.45;88.62012;937.5045;;;;
2023/06/05 06:10:32;;;;;;;7;5.2;;;;;;;16.55;87.91309;937.4908;;;;
2023/06/05 06:12:58;;;;;;;5.5;4.8;;;;;;;16.58;88.33496;937.558;;;;
2023/06/05 06:15:27;;;;;;;7.8;5;;;;;;;16.56;88.49316;937.527;;;;
2023/06/05 06:17:56;;;;;;;6.2;4.4;;;;;;;16.58;86.86426;937.5508;;;;
2023/06/05 06:20:24;;;;;;;6;4.7;;;;;;;16.54;85.17871;937.5016;;;;
2023/06/05 06:22:59;;;;;;;4.7;3.7;;;;;;;16.62;85.49414;937.5385;;;;
2023/06/05 06:25:28;;;;;;;4.6;3.9;;;;;;;;;;;;;
2023/06/05 06:27:53;;;;;;;5.8;4.7;;;;;;;;;;;;;
2023/06/05 06:30:15;;;;;;;7.7;4.9;;;;;;;;;;;;;
2023/06/05 06:32:41;;;;;;;5.7;4.7;;;;;;;;;;;;;
2023/06/05 06:35:08;;;;;;;8.2;5.1;;;;;;;;;;;;;
2023/06/05 06:37:35;;;;;;;6.2;5.1;;;;;;;;;;;;;
2023/06/05 06:40:00;;;;;;;6.4;4.9;;;;;;;;;;;;;
2023/06/05 06:42:33;;;;;;;5.3;4.7;;;;;;;;;;;;;
2023/06/05 06:44:55;;;;;;;5.7;4.6;;;;;;;;;;;;;
2023/06/05 06:47:19;;;;;;;4.4;3.9;;;;;;;;;;;;;
2023/06/05 06:49:47;;;;;;;7.2;4.4;;;;;;;;;;;;;
2023/06/05 06:52:12;;;;;;;5.5;4.1;;;;;;;;;;;;;
2023/06/05 06:54:40;;;;;;;5.6;4.7;;;;;;;;;;;;;
2023/06/05 06:57:05;;;;;;;5.5;4.4;;;;;;;;;;;;;
2023/06/05 06:59:32;;;;;;;6.1;4.2;;;;;;;;;;;;;
2023/06/05 07:01:56;;;;;;;4.3;3.9;;;;;;;;;;;;;
2023/06/05 07:04:21;;;;;;;4.3;3.9;;;;;;;;;;;;;
2023/06/05 07:06:48;;;;;;;5.6;4.3;;;;;;;;;;;;;
2023/06/05 07:09:13;;;;;;;5.3;4.1;;;;;;;;;;;;;
2023/06/05 07:11:39;;;;;;;6.9;4.2;;;;;;;;;;;;;
2023/06/05 07:14:04;;;;;;;5.1;4.1;;;;;;;;;;;;;
2023/06/05 07:16:29;;;;;;;4.8;4.2;;;;;;;;;;;;;
2023/06/05 07:18:55;;;;;;;5.4;4.3;;;;;;;;;;;;;
2023/06/05 07:21:21;;;;;;;6.3;4.1;;;;;;;;;;;;;
2023/06/05 07:23:47;;;;;;;5;3.7;;;;;;;;;;;;;
2023/06/05 07:26:15;;;;;;;5.2;3.8;;;;;;;;;;;;;
2023/06/05 07:28:38;;;;;;;5.2;3.9;;;;;;;;;;;;;
2023/06/05 07:31:04;;;;;;;4.5;3.7;;;;;;;;;;;;;
2023/06/05 07:33:28;;;;;;;4.4;3.7;;;;;;;;;;;;;
2023/06/05 07:35:55;;;;;;;5.8;4;;;;;;;;;;;;;
2023/06/05 07:38:20;;;;;;;4.2;3.8;;;;;;;;;;;;;
2023/06/05 07:40:47;;;;;;;5.1;3.7;;;;;;;;;;;;;
2023/06/05 07:43:14;;;;;;;4.5;3.8;;;;;;;;;;;;;
2023/06/05 07:45:40;;;;;;;5.4;3.9;;;;;;;;;;;;;
2023/06/05 07:48:05;;;;;;;8.1;4;;;;;;;;;;;;;
2023/06/05 07:50:31;;;;;;;5.4;3.7;;;;;;;;;;;;;
2023/06/05 07:52:56;;;;;;;4.9;3.7;;;;;;;;;;;;;
2023/06/05 07:55:53;;;;;;;4.9;3.7;;;;;;;;;;;;;
2023/06/05 07:57:54;;;;;;;3.9;3.5;;;;;;;;;;;;;
2023/06/05 08:02:59;;;;;;;4.8;3.9;;;;;;;;;;;;;
2023/06/05 08:56:56;;;;;;;5;4;;;;;;;21.16;61.91699;937.4684;;;;
2023/06/05 08:59:24;;;;;;;4.8;3.9;;;;;;;21.19;65.44531;937.4964;;;;
2023/06/05 09:01:47;;;;;;;5.1;3.9;;;;;;;21.41;62.53809;937.4752;;;;
2023/06/05 09:04:13;;;;;;;5.5;4.1;;;;;;;22.07;60.01758;937.4844;;;;
2023/06/05 09:06:45;;;;;;;8.3;4.1;;;;;;;21.49;63.34473;937.4461;;;;
2023/06/05 09:09:40;;;;;;;6.2;4.1;;;;;;;21.58;61.71973;937.4656;;;;
2023/06/05 09:12:05;;;;;;;5.5;4.1;;;;;;;21.51;60.03613;937.4009;;;;
2023/06/05 09:14:31;;;;;;;5.7;4.3;;;;;;;22.1;60.17383;937.4355;;;;
2023/06/05 09:16:55;;;;;;;5.3;4.1;;;;;;;22.12;58.79297;937.4252;;;;
2023/06/05 09:19:24;;;;;;;4.6;3.8;;;;;;;21.43;63.52441;937.3792;;;;
2023/06/05 09:21:46;;;;;;;5.2;3.8;;;;;;;21.5;64.15527;937.3695;;;;
2023/06/05 09:24:13;;;;;;;8.9;4.3;;;;;;;22.51;56.99023;937.3243;;;;
2023/06/05 09:26:41;;;;;;;6.1;4.3;;;;;;;22.48;58.92285;937.3419;;;;
2023/06/05 09:29:06;;;;;;;4.9;4.3;;;;;;;22.89;55.98242;937.2723;;;;
2023/06/05 09:31:32;;;;;;;6.8;4.3;;;;;;;22.79;56.89746;937.2902;;;;
2023/06/05 09:34:01;;;;;;;5.5;4.3;;;;;;;21.27;60.7168;937.2823;;;;
2023/06/05 09:36:34;;;;;;;5.1;4.5;;;;;;;21.69;59.22754;937.2936;;;;
2023/06/05 09:38:56;;;;;;;5.6;4.3;;;;;;;21.55;63.08496;937.3298;;;;
2023/06/05 09:41:22;;;;;;;5.8;4.4;;;;;;;21.02;64.21387;937.2542;;;;
2023/06/05 09:43:52;;;;;;;5.2;4.7;;;;;;;21.05;65.37695;937.2427;;;;
2023/06/05 09:46:17;;;;;;;5.2;4.5;;;;;;;20.68;65.75293;937.2647;;;;
2023/06/05 09:48:46;;;;;;;6.4;4.6;;;;;;;20.61;65.49707;937.2366;;;;
2023/06/05 09:51:17;;;;;;;6;4.5;;;;;;;20.85;65.41602;937.2441;;;;
2023/06/05 09:53:41;;;;;;;5.7;4.8;;;;;;;20.92;66.23535;937.2603;;;;
2023/06/05 09:56:11;;;;;;;6.7;4.9;;;;;;;20.71;68.23633;937.1962;;;;
2023/06/05 09:58:41;;;;;;;6.9;5.2;;;;;;;21.09;64.51758;937.1733;;;;
2023/06/05 10:01:07;;;;;;;6.1;5.1;;;;;;;21.27;64.76563;937.1543;;;;
2023/06/05 10:03:37;;;;;;;6.1;5.1;;;;;;;21.56;63.66016;937.1916;;;;
2023/06/05 10:06:02;;;;;;;6.5;4.9;;;;;;;20.49;67.09277;937.1375;;;;
2023/06/05 10:08:32;;;;;;;6.1;5.2;;;;;;;20.76;66.72363;937.122;;;;
2023/06/05 10:11:00;;;;;;;6.3;5.2;;;;;;;20.72;68.70508;937.1337;;;;
2023/06/05 10:13:27;;;;;;;5.6;5.1;;;;;;;20.44;66.29004;937.1317;;;;
2023/06/05 10:15:56;;;;;;;9.3;5.3;;;;;;;20.79;63.42285;937.1128;;;;
2023/06/05 10:18:21;;;;;;;8.5;5.8;;;;;;;20.81;65.04883;937.0808;;;;
2023/06/05 10:20:46;;;;;;;6.4;5.1;;;;;;;20.93;67.66113;937.0504;;;;
2023/06/05 10:23:14;;;;;;;8.1;5.5;;;;;;;20.46;67.51953;937.0397;;;;
2023/06/05 10:25:40;;;;;;;8.3;5.8;;;;;;;20.68;66.50098;937.0533;;;;
2023/06/05 10:28:09;;;;;;;6;5.3;;;;;;;21.04;65.6543;936.9986;;;;
2023/06/05 10:30:34;;;;;;;7.9;6.1;;;;;;;20.98;66.46484;936.9964;;;;
2023/06/05 10:33:05;;;;;;;6.3;5.6;;;;;;;21.18;64.88086;937.0108;;;;
2023/06/05 10:35:30;;;;;;;6.7;5.2;;;;;;;21.31;66.33887;937.0363;;;;
2023/06/05 10:37:55;;;;;;;7.1;5.5;;;;;;;20.67;65.28613;936.9775;;;;
2023/06/05 10:40:25;;;;;;;6.5;5.5;;;;;;;20.67;67.06152;937.0172;;;;
2023/06/05 10:42:54;;;;;;;9.2;5.9;;;;;;;20.76;66.2793;937.0184;;;;
2023/06/05 10:45:22;;;;;;;6.2;5.4;;;;;;;21.26;64.66992;937.0331;;;;
2023/06/05 10:47:51;;;;;;;6.2;5.3;;;;;;;21.23;63.90527;937.0096;;;;
2023/06/05 10:50:18;;;;;;;6.8;5.6;;;;;;;21.28;63.35059;937.0262;;;;
2023/06/05 10:52:43;;;;;;;6.9;5.9;;;;;;;20.78;66.65625;936.9951;;;;
2023/06/05 10:55:15;;;;;;;7.2;5.7;;;;;;;20.54;65.93164;936.9232;;;;
2023/06/05 10:57:40;;;;;;;7.1;6.3;;;;;;;20.62;66.16602;936.9069;;;;
2023/06/05 11:00:05;;;;;;;7.8;5.9;;;;;;;20.08;68.90918;936.8772;;;;
2023/06/05 11:02:30;;;;;;;7.4;5.7;;;;;;;20.19;67.58496;936.9294;;;;
2023/06/05 11:05:04;;;;;;;8.2;6;;;;;;;20.26;67.59473;936.9441;;;;
2023/06/05 11:07:33;;;;;;;6;5.4;;;;;;;20.38;65.54492;936.9623;;;;
2023/06/05 11:09:57;;;;;;;6.8;5.5;;;;;;;20.51;65.12109;936.9702;;;;
2023/06/05 11:12:25;;;;;;;8.5;6;;;;;;;20.48;66.9043;936.9709;;;;
2023/06/05 11:14:55;;;;;;;6.7;5.5;;;;;;;20.31;66.9834;937.0062;;;;
2023/06/05 11:17:20;;;;;;;8;6;;;;;;;20.17;70.14844;936.9762;;;;
2023/06/05 11:19:46;;;;;;;6.8;5.7;;;;;;;20.42;69.32324;937.0019;;;;
2023/06/05 11:22:11;;;;;;;9.2;6.1;;;;;;;20.67;68.47559;936.9548;;;;
2023/06/05 11:24:38;;;;;;;7;5.6;;;;;;;20.79;66.41504;936.9347;;;;
2023/06/05 11:27:05;;;;;;;8.5;6.2;;;;;;;20.93;68.56152;936.9194;;;;
2023/06/05 11:29:29;;;;;;;7.2;5.5;;;;;;;20.53;72.02637;936.9292;;;;
2023/06/05 11:32:01;;;;;;;7.8;6.7;;;;;;;20.28;73.58789;936.8981;;;;
2023/06/05 11:34:29;;;;;;;8.2;6.5;;;;;;;20.4;74.58691;936.9188;;;;
2023/06/05 11:36:57;;;;;;;8.4;6.5;;;;;;;20.74;74.64648;936.9615;;;;
2023/06/05 11:39:29;;;;;;;7.4;6.4;;;;;;;20.64;77.59766;936.861;;;;
2023/06/05 11:41:58;;;;;;;8.7;6.6;;;;;;;20.54;76.46973;936.8833;;;;
2023/06/05 11:44:23;;;;;;;7;6.3;;;;;;;20.75;73.29004;936.8236;;;;
2023/06/05 11:46:50;;;;;;;7.2;5.9;;;;;;;20.8;71.59277;936.7944;;;;
2023/06/05 11:49:16;;;;;;;7.3;6;;;;;;;20.88;72.30566;936.8036;;;;
2023/06/05 11:51:43;;;;;;;6.6;5.6;;;;;;;20.79;69.89844;936.7712;;;;
2023/06/05 11:54:14;;;;;;;6.6;5.6;;;;;;;20.63;69.87109;936.774;;;;
2023/06/05 11:56:45;;;;;;;7.3;5.6;;;;;;;20.64;70.05957;936.7026;;;;
2023/06/05 11:59:01;;;;;;;5.6;5;;;;;;;20.74;67.69238;936.6961;;;;
2023/06/05 12:01:32;;;;;;;7;5.3;;;;;;;20.83;67.6582;936.6896;;;;
2023/06/05 12:03:57;;;;;;;7.4;5.2;;;;;;;21.27;67.2207;936.6863;;;;
2023/06/05 12:06:26;;;;;;;8.1;5.2;;;;;;;21.63;67.04199;936.637;;;;
2023/06/05 12:08:50;;;;;;;5.6;4.9;;;;;;;21.45;65.34082;936.6196;;;;
2023/06/05 12:11:18;;;;;;;5.3;4.4;;;;;;;21.48;65.75684;936.6345;;;;
2023/06/05 12:13:47;;;;;;;6.7;4.9;;;;;;;21.78;68.13086;936.625;;;;
2023/06/05 12:16:12;;;;;;;6;4.6;;;;;;;21.88;63.93945;936.5739;;;;
2023/06/05 12:18:37;;;;;;;6.4;5;;;;;;;21.83;64.44824;936.6089;;;;
2023/06/05 12:21:03;;;;;;;5.9;4.8;;;;;;;21.56;64.58496;936.5914;;;;
2023/06/05 12:23:30;;;;;;;6.2;5.5;;;;;;;21.44;64.19238;936.5316;;;;
2023/06/05 12:25:55;;;;;;;5.4;4.6;;;;;;;21.1;65.84082;936.5511;;;;
2023/06/05 12:28:25;;;;;;;4.7;4.2;;;;;;;20.61;65.2168;936.5375;;;;
2023/06/05 12:30:48;;;;;;;7.2;4.6;;;;;;;20.62;67.52148;936.5541;;;;
2023/06/05 12:33:19;;;;;;;5.3;4.7;;;;;;;20.48;65.63184;936.437;;;;
2023/06/05 12:35:44;;;;;;;4.8;4.3;;;;;;;20.38;65.52344;936.54;;;;
2023/06/05 12:38:17;;;;;;;5.2;4.4;;;;;;;20.52;65.58984;936.4788;;;;
2023/06/05 12:40:40;;;;;;;5.5;4.7;;;;;;;20.7;66.55176;936.521;;;;
2023/06/05 12:43:10;;;;;;;6.3;4.8;;;;;;;20.79;64.50781;936.4866;;;;
2023/06/05 12:45:37;;;;;;;6.2;5.1;;;;;;;20.61;62.98633;936.5123;;;;
2023/06/05 12:48:10;;;;;;;6;4.9;;;;;;;20.63;64.0752;936.4611;;;;
2023/06/05 12:50:33;;;;;;;7.3;5.3;;;;;;;20.63;64.8125;936.5037;;;;
2023/06/05 12:53:02;;;;;;;5.3;4.8;;;;;;;20.64;64.48535;936.43;;;;
2023/06/05 12:55:33;;;;;;;7.5;5.3;;;;;;;20.82;65.2832;936.5033;;;;
2023/06/05 12:58:02;;;;;;;6.2;4.8;;;;;;;20.84;62.03809;936.5069;;;;
2023/06/05 13:00:30;;;;;;;6.3;4.7;;;;;;;20.96;62.31055;936.5338;;;;
2023/06/05 13:03:02;;;;;;;5.6;4.8;;;;;;;20.9;58.80664;936.4824;;;;
2023/06/05 13:05:26;;;;;;;5.4;4.5;;;;;;;20.76;59.36035;936.4673;;;;
2023/06/05 13:07:55;;;;;;;4.8;4.3;;;;;;;20.69;58.70898;936.5285;;;;
2023/06/05 13:10:25;;;;;;;5.5;4.9;;;;;;;20.76;60.34375;936.5514;;;;
2023/06/05 13:12:53;;;;;;;4.8;4.3;;;;;;;20.95;60.74316;936.5754;;;;
2023/06/05 13:15:19;;;;;;;5.4;4.4;;;;;;;20.48;66.23926;936.5834;;;;
2023/06/05 13:17:50;;;;;;;4.3;3.8;;;;;;;20.06;65.96484;936.5801;;;;
2023/06/05 13:20:20;;;;;;;6.6;4.4;;;;;;;19.83;67.26074;936.5972;;;;
2023/06/05 13:22:45;;;;;;;5.9;4;;;;;;;19.83;67.49414;936.5881;;;;
2023/06/05 13:25:14;;;;;;;4.7;3.7;;;;;;;19.84;67.44922;936.5669;;;;
2023/06/05 13:27:38;;;;;;;5.4;4;;;;;;;19.76;68.17188;936.5228;;;;
2023/06/05 13:30:06;;;;;;;4.4;4;;;;;;;19.7;66.86719;936.5294;;;;
2023/06/05 13:32:31;;;;;;;5.1;3.9;;;;;;;19.86;64.41895;936.5291;;;;
2023/06/05 13:34:58;;;;;;;5.2;4;;;;;;;19.98;66.57129;936.4956;;;;
2023/06/05 13:37:23;;;;;;;4.8;4.3;;;;;;;19.8;65.08691;936.5105;;;;
2023/06/05 13:39:52;;;;;;;4.9;4;;;;;;;19.72;66.39258;936.5765;;;;
2023/06/05 13:42:18;;;;;;;4.2;3.8;;;;;;;19.69;64.14941;936.625;;;;
2023/06/05 13:44:45;;;;;;;4.5;3.9;;;;;;;19.81;64.48145;936.6362;;;;
2023/06/05 13:47:10;;;;;;;4.7;3.5;;;;;;;19.51;64.33301;936.6367;;;;
2023/06/05 13:49:36;;;;;;;4.5;3.5;;;;;;;19.85;63.32129;936.6336;;;;
2023/06/05 13:52:01;;;;;;;5.1;3.9;;;;;;;19.89;62.93164;936.6178;;;;
2023/06/05 13:54:28;;;;;;;5;3.5;;;;;;;19.75;60.53223;936.6669;;;;
2023/06/05 13:56:53;;;;;;;4.9;4;;;;;;;19.79;62.75293;936.5292;;;;
2023/06/05 13:59:18;;;;;;;4.8;3.5;;;;;;;19.82;61.41699;936.6318;;;;
2023/06/05 14:01:43;;;;;;;4.4;3.6;;;;;;;19.95;61.03711;936.6897;;;;
2023/06/05 14:04:09;;;;;;;5;3.6;;;;;;;19.97;62.20703;936.6472;;;;
2023/06/05 14:06:39;;;;;;;5.6;3.8;;;;;;;19.99;63.42285;936.645;;;;
2023/06/05 14:09:03;;;;;;;5;4;;;;;;;20;63.7041;936.6003;;;;
2023/06/05 14:11:36;;;;;;;4.8;4.1;;;;;;;20.27;65.90332;936.6994;;;;
2023/06/05 14:14:04;;;;;;;5.7;3.4;;;;;;;20;63.64648;936.6284;;;;
2023/06/05 14:16:32;;;;;;;3.5;3;;;;;;;20.07;62.48828;936.6544;;;;
2023/06/05 14:19:02;;;;;;;3.4;3.1;;;;;;;19.97;64.82129;936.6358;;;;
2023/06/05 14:21:27;;;;;;;5.6;3.3;;;;;;;20.05;61.74023;936.6361;;;;
2023/06/05 14:23:57;;;;;;;4.1;3.1;;;;;;;19.94;62.01465;936.649;;;;
2023/06/05 14:26:22;;;;;;;4.3;2.9;;;;;;;19.75;62.40918;936.687;;;;
2023/06/05 14:28:49;;;;;;;5.8;3.3;;;;;;;19.69;60.94434;936.6872;;;;
2023/06/05 14:31:14;;;;;;;4.1;3;;;;;;;19.54;60.35156;936.6725;;;;
2023/06/05 14:33:40;;;;;;;3.3;2.8;;;;;;;19.45;60.7002;936.6627;;;;
2023/06/05 14:36:05;;;;;;;3.3;2.8;;;;;;;19.55;60.00195;936.7054;;;;
2023/06/05 14:38:34;;;;;;;3.6;3.3;;;;;;;19.5;61.12695;936.6783;;;;
2023/06/05 14:41:04;;;;;;;3.9;3.1;;;;;;;19.61;61.8877;936.6722;;;;
2023/06/05 14:43:29;;;;;;;4.2;3.1;;;;;;;19.7;61.90039;936.6814;;;;
2023/06/05 14:45:56;;;;;;;3.5;3.2;;;;;;;19.77;62.19043;936.6842;;;;
2023/06/05 14:48:20;;;;;;;3;2.8;;;;;;;19.74;60.2627;936.7223;;;;
2023/06/05 14:50:50;;;;;;;3.9;3;;;;;;;19.91;60.78613;936.6733;;;;
2023/06/05 14:53:15;;;;;;;4.6;2.9;;;;;;;19.92;60.36719;936.6431;;;;
2023/06/05 14:55:40;;;;;;;3.9;2.6;;;;;;;19.93;59.87988;936.671;;;;
2023/06/05 14:58:07;;;;;;;4.1;3;;;;;;;19.95;62.56543;936.6379;;;;
2023/06/05 15:00:36;;;;;;;4.3;3.2;;;;;;;19.79;63.67383;936.6747;;;;
2023/06/05 15:03:05;;;;;;;3.6;3.1;;;;;;;19.65;63.35156;936.7425;;;;
2023/06/05 15:05:30;;;;;;;3.5;3.2;;;;;;;19.84;63.43652;936.6677;;;;
2023/06/05 15:07:56;;;;;;;4.3;3.4;;;;;;;19.97;62.76758;936.6567;;;;
2023/06/05 15:10:21;;;;;;;4;3.1;;;;;;;20;61.34863;936.6809;;;;
2023/06/05 15:12:49;;;;;;;4.5;3.6;;;;;;;20.23;62.72266;936.7184;;;;
2023/06/05 15:15:15;;;;;;;4.1;3.2;;;;;;;20.4;60.07227;936.7189;;;;
2023/06/05 15:17:41;;;;;;;4.3;3.1;;;;;;;20.14;59.21973;936.7126;;;;
2023/06/05 15:20:08;;;;;;;3.8;3.4;;;;;;;20.29;59.50879;936.7043;;;;
2023/06/05 15:22:32;;;;;;;3.8;3.2;;;;;;;20.17;59.37402;936.6917;;;;
2023/06/05 15:25:01;;;;;;;3.2;2.9;;;;;;;20.16;58.98828;936.6385;;;;
2023/06/05 15:27:30;;;;;;;5.4;3.9;;;;;;;19.89;64.66797;936.6002;;;;
2023/06/05 15:29:55;;;;;;;6.1;3.7;;;;;;;20.21;63.25684;936.6337;;;;
2023/06/05 15:32:22;;;;;;;3.8;3.2;;;;;;;20.39;61.95117;936.597;;;;
2023/06/05 15:34:47;;;;;;;4.4;3.3;;;;;;;20.39;61.01563;936.543;;;;
2023/06/05 15:37:14;;;;;;;3.5;3.2;;;;;;;20.14;63.50195;936.5883;;;;
2023/06/05 15:39:39;;;;;;;3.7;3.3;;;;;;;20.24;62.65332;936.5176;;;;
2023/06/05 15:42:08;;;;;;;5.9;3.9;;;;;;;20.35;63.56836;936.5361;;;;
2023/06/05 15:44:32;;;;;;;4.8;3.2;;;;;;;20.48;63.17773;936.5399;;;;
2023/06/05 15:47:01;;;;;;;3.7;3.3;;;;;;;20.33;62.34082;936.5268;;;;
2023/06/05 15:49:26;;;;;;;5.5;3.7;;;;;;;19.56;66.39063;936.563;;;;
2023/06/05 15:51:54;;;;;;;4.1;3.6;;;;;;;19.4;67.21875;936.5878;;;;
2023/06/05 15:54:20;;;;;;;4;3.2;;;;;;;19.46;66.12012;936.6035;;;;
2023/06/05 15:56:46;;;;;;;4.4;4;;;;;;;19.02;68.14844;936.5159;;;;
2023/06/05 15:59:11;;;;;;;5.3;4;;;;;;;19.1;68.23145;936.5092;;;;
2023/06/05 16:01:39;;;;;;;5.7;3.7;;;;;;;19.38;66.0625;936.5907;;;;
2023/06/05 16:04:04;;;;;;;6.1;4;;;;;;;19.41;64.24902;936.5229;;;;
2023/06/05 16:06:31;;;;;;;4.8;4.2;;;;;;;19.35;66.12695;936.539;;;;
2023/06/05 16:08:58;;;;;;;40.6;7.6;;;;;;;19.45;67.38867;936.5602;;;;
2023/06/05 16:11:26;;;;;;;5.5;4.1;;;;;;;19.11;66.28906;936.5443;;;;
2023/06/05 16:13:50;;;;;;;5.3;3.9;;;;;;;19;64.56152;936.5516;;;;
2023/06/05 16:16:16;;;;;;;5.1;3.8;;;;;;;18.85;64.10938;936.5313;;;;
2023/06/05 16:18:41;;;;;;;5.5;4;;;;;;;18.94;63.84277;936.4928;;;;
2023/06/05 16:21:08;;;;;;;5.2;4.1;;;;;;;18.77;66.71387;936.4171;;;;
2023/06/05 16:23:33;;;;;;;5.7;4.2;;;;;;;19.05;64.10156;936.433;;;;
2023/06/05 16:25:59;;;;;;;4.7;4;;;;;;;18.87;64.41309;936.4705;;;;
2023/06/05 16:28:24;;;;;;;4.4;3.8;;;;;;;19;66.21387;936.4348;;;;
2023/06/05 16:30:52;;;;;;;5.7;3.8;;;;;;;18.91;66.66699;936.4152;;;;
2023/06/05 16:33:18;;;;;;;4.2;3.7;;;;;;;18.98;64.74414;936.3989;;;;
2023/06/05 16:35:45;;;;;;;5.2;3.8;;;;;;;19.44;62.7959;936.4167;;;;
2023/06/05 16:38:09;;;;;;;4.1;3.4;;;;;;;19.6;62.57422;936.3947;;;;
2023/06/05 16:40:37;;;;;;;5.5;3.9;;;;;;;19.84;62.1875;936.3915;;;;
2023/06/05 16:43:07;;;;;;;5.1;3.9;;;;;;;19.66;62.68652;936.4272;;;;
2023/06/05 16:45:36;;;;;;;4;3.5;;;;;;;19.95;62.57715;936.4714;;;;
2023/06/05 16:47:57;;;;;;;5.9;3.8;;;;;;;20.07;62.73438;936.4925;;;;
2023/06/05 16:50:23;;;;;;;5.1;4;;;;;;;20;63.29688;936.4489;;;;
2023/06/05 16:52:49;;;;;;;5.6;4.3;;;;;;;20.04;64.04883;936.5143;;;;
2023/06/05 16:55:16;;;;;;;5.5;3.9;;;;;;;20.13;63.91016;936.5029;;;;
2023/06/05 16:57:41;;;;;;;4.9;4;;;;;;;20.07;64.72852;936.4814;;;;
2023/06/05 17:00:13;;;;;;;6.7;4.1;;;;;;;19.96;65.21582;936.5563;;;;
2023/06/05 17:02:40;;;;;;;4.5;3.8;;;;;;;19.97;66.11523;936.5325;;;;
2023/06/05 17:05:05;;;;;;;6.5;4.5;;;;;;;19.6;67.70313;936.5722;;;;
2023/06/05 17:07:32;;;;;;;5;3.7;;;;;;;19.54;67.78809;936.4657;;;;
2023/06/05 17:09:58;;;;;;;5.2;4.1;;;;;;;19.3;68.43848;936.5016;;;;
2023/06/05 17:12:25;;;;;;;4.3;3.8;;;;;;;19.39;69.51074;936.5276;;;;
2023/06/05 17:14:50;;;;;;;5.2;3.9;;;;;;;19.41;70.05273;936.5276;;;;
2023/06/05 17:17:17;;;;;;;4.7;3.6;;;;;;;19.21;69.97363;936.4698;;;;
2023/06/05 17:19:42;;;;;;;6.2;4.2;;;;;;;19.52;69.67383;936.5056;;;;
2023/06/05 17:22:09;;;;;;;4.5;3.8;;;;;;;19.6;67.83203;936.5602;;;;
2023/06/05 17:24:34;;;;;;;5.7;4.3;;;;;;;19.82;67.77344;936.4858;;;;
2023/06/05 17:27:01;;;;;;;5.3;4;;;;;;;19.59;68.50586;936.4871;;;;
2023/06/05 17:29:26;;;;;;;4.1;3.7;;;;;;;19.73;68.0957;936.3929;;;;
2023/06/05 17:31:55;;;;;;;5.3;3.8;;;;;;;19.67;67.58594;936.4802;;;;
2023/06/05 17:34:18;;;;;;;4;3.6;;;;;;;19.47;68.31348;936.528;;;;
2023/06/05 17:36:45;;;;;;;5.3;4;;;;;;;19.52;67.97168;936.4853;;;;
2023/06/05 17:39:10;;;;;;;5.5;4.1;;;;;;;19.63;68.74512;936.5468;;;;
2023/06/05 17:41:38;;;;;;;4.8;4.2;;;;;;;19.61;67.99609;936.5616;;;;
2023/06/05 17:44:03;;;;;;;5.5;4.1;;;;;;;19.63;68.15039;936.5863;;;;
2023/06/05 17:46:32;;;;;;;4.5;4.1;;;;;;;19.41;69.40039;936.6245;;;;
2023/06/05 17:48:58;;;;;;;5.8;4;;;;;;;19.21;70.04199;936.5943;;;;
2023/06/05 17:51:25;;;;;;;5.3;4;;;;;;;19.32;69.9668;936.6054;;;;
2023/06/05 17:53:51;;;;;;;5.5;3.9;;;;;;;19.23;69.82324;936.6102;;;;
2023/06/05 17:56:17;;;;;;;4.3;3.9;;;;;;;19.32;71.0625;936.6152;;;;
2023/06/05 17:58:43;;;;;;;5.5;4;;;;;;;19.2;69.91309;936.5815;;;;
2023/06/05 18:01:12;;;;;;;5.6;4.3;;;;;;;19.19;69.93555;936.5963;;;;
2023/06/05 18:03:37;;;;;;;4.6;3.8;;;;;;;18.97;70.86523;936.6275;;;;
2023/06/05 18:06:06;;;;;;;4.7;3.7;;;;;;;18.94;71.14063;936.6494;;;;
2023/06/05 18:08:36;;;;;;;5.6;3.8;;;;;;;18.76;71.6123;936.6317;;;;
2023/06/05 18:11:01;;;;;;;5.1;4.3;;;;;;;18.52;72.89746;936.6813;;;;
2023/06/05 18:13:30;;;;;;;4.6;4.2;;;;;;;18.29;75.09082;936.6929;;;;
2023/06/05 18:15:54;;;;;;;5;4.4;;;;;;;17.97;77.00098;936.7516;;;;
2023/06/05 18:18:20;;;;;;;5.2;4.5;;;;;;;18.14;76.82031;936.8161;;;;
2023/06/05 18:20:45;;;;;;;5.2;4.4;;;;;;;18.08;76.79883;936.8123;;;;
2023/06/05 18:23:12;;;;;;;5.7;5.1;;;;;;;18.06;77.21387;936.8314;;;;
2023/06/05 18:25:37;;;;;;;5.4;4.7;;;;;;;18.06;77.64355;936.8958;;;;
2023/06/05 18:28:05;;;;;;;5.1;4.6;;;;;;;17.9;78.80957;936.9247;;;;
2023/06/05 18:30:30;;;;;;;5.9;4.6;;;;;;;17.93;79.7002;937.1657;;;;
2023/06/05 18:32:57;;;;;;;5;4.5;;;;;;;18.09;79.14746;937.2626;;;;
2023/06/05 18:35:22;;;;;;;6.1;4.5;;;;;;;18;74.39063;937.2764;;;;
2023/06/05 18:37:51;;;;;;;4.7;4.1;;;;;;;17.78;67.52832;937.2097;;;;
2023/06/05 18:40:16;;;;;;;4.9;3.9;;;;;;;17.78;68.45703;937.3442;;;;
2023/06/05 18:42:46;;;;;;;5;3.6;;;;;;;17.51;69.88965;937.5042;;;;
2023/06/05 18:45:15;;;;;;;5.9;4.1;;;;;;;17.03;74.53027;937.5095;;;;
2023/06/05 18:47:40;;;;;;;5.3;4.3;;;;;;;16.82;75.27148;937.6002;;;;
2023/06/05 18:50:09;;;;;;;6.1;4.2;;;;;;;16.55;76.00977;937.634;;;;
2023/06/05 18:52:39;;;;;;;5;4.1;;;;;;;16.32;76.31836;937.694;;;;
2023/06/05 18:55:04;;;;;;;4.6;3.5;;;;;;;16.08;77.96582;937.77;;;;
2023/06/05 18:57:32;;;;;;;5.7;3.9;;;;;;;15.96;80.00098;937.8538;;;;
2023/06/05 18:59:57;;;;;;;5;3.8;;;;;;;15.65;81.87402;937.825;;;;
2023/06/05 19:02:26;;;;;;;5.5;3.8;;;;;;;15.38;83.32422;937.8798;;;;
2023/06/05 19:04:51;;;;;;;4.6;3.9;;;;;;;15.37;84.02734;937.8936;;;;
2023/06/05 19:07:22;;;;;;;4.5;3.8;;;;;;;15.36;84.66992;937.9467;;;;
2023/06/05 19:10:54;;;;;;;5.2;3.9;;;;;;;15.32;84.39746;937.9727;;;;
2023/06/05 19:13:25;;;;;;;5.5;3.9;;;;;;;15.53;83.97559;938.0327;;;;
2023/06/05 19:15:52;;;;;;;6.6;4.6;;;;;;;15.61;84.63867;938.0178;;;;
2023/06/05 19:18:21;;;;;;;7;4.2;;;;;;;15.69;83.83398;937.9666;;;;
2023/06/05 19:20:46;;;;;;;6.9;4.3;;;;;;;15.46;86.03027;938.0117;;;;
2023/06/05 19:23:42;;;;;;;9.3;4;;;;;;;15.13;89.80762;937.9227;;;;
2023/06/05 19:26:10;;;;;;;5.7;4.8;;;;;;;15.01;91.44238;937.9484;;;;
2023/06/05 19:28:36;;;;;;;6.2;4.3;;;;;;;14.9;90.12988;938.0101;;;;
2023/06/05 19:31:01;;;;;;;6.1;4.8;;;;;;;15;90.90039;938.0807;;;;
2023/06/05 19:33:26;;;;;;;5;4.5;;;;;;;14.79;91.27051;938.1245;;;;
2023/06/05 19:35:56;;;;;;;6.4;4.8;;;;;;;14.83;92.48828;938.1334;;;;
2023/06/05 19:42:01;;;;;;;4.9;4.3;;;;;;;14.61;93.52637;938.1286;;;;
2023/06/05 19:44:26;;;;;;;7.1;4.8;;;;;;;14.78;94.19922;938.127;;;;
2023/06/05 19:46:51;;;;;;;7.4;4.8;;;;;;;14.75;93.0957;938.0558;;;;
2023/06/05 19:49:17;;;;;;;5.1;4.5;;;;;;;14.84;92.37695;938.0025;;;;
2023/06/05 19:51:43;;;;;;;6;4.7;;;;;;;14.89;91.38379;938.0559;;;;
2023/06/05 19:54:08;;;;;;;4.4;4;;;;;;;14.92;89.99316;938.0324;;;;
2023/06/05 19:56:36;;;;;;;5.7;4.7;;;;;;;14.88;90.41504;937.9573;;;;
2023/06/05 19:59:03;;;;;;;6.7;4.9;;;;;;;14.94;91.15234;937.9722;;;;
2023/06/05 20:01:28;;;;;;;5.4;4.9;;;;;;;15.08;91.84961;937.9649;;;;
2023/06/05 20:03:53;;;;;;;5.6;4.7;;;;;;;15.06;92.75977;937.9601;;;;
2023/06/05 20:06:23;;;;;;;6.2;4.6;;;;;;;15.07;91.12109;937.9457;;;;
2023/06/05 20:08:48;;;;;;;5.8;5;;;;;;;15.06;91.97266;937.9418;;;;
2023/06/05 20:11:18;;;;;;;5.3;4.8;;;;;;;15.16;91.12891;937.9481;;;;
2023/06/05 20:13:47;;;;;;;5.2;4.6;;;;;;;15.1;91.48438;937.9423;;;;
2023/06/05 20:16:12;;;;;;;6.3;4.4;;;;;;;14.9;93.72852;937.9372;;;;
2023/06/05 20:18:37;;;;;;;6.5;4.6;;;;;;;14.97;93.67285;937.9006;;;;
2023/06/05 20:21:02;;;;;;;6.3;4.9;;;;;;;15.05;93.9668;937.8409;;;;
2023/06/05 20:23:32;;;;;;;5.2;4.7;;;;;;;15.12;92.97852;937.8329;;;;
2023/06/05 20:25:56;;;;;;;4.9;4.4;;;;;;;14.95;91.89258;937.8533;;;;
2023/06/05 20:28:23;;;;;;;4.5;4.1;;;;;;;14.92;91.61035;937.8135;;;;
2023/06/05 20:30:48;;;;;;;12.1;8.2;;;;;;;14.96;92.78223;937.7506;;;;
2023/06/05 20:33:57;;;;;;;5.2;4.5;;;;;;;14.84;92.22754;937.7773;;;;
2023/06/05 20:36:20;;;;;;;6.7;4.4;;;;;;;14.75;92.96875;937.7745;;;;
2023/06/05 20:38:47;;;;;;;5.2;4.4;;;;;;;14.78;92.48145;937.723;;;;
2023/06/05 20:41:13;;;;;;;5.2;4.7;;;;;;;14.81;93.52441;937.7155;;;;
2023/06/05 20:43:41;;;;;;;10.9;5.1;;;;;;;14.88;93.66504;937.7393;;;;
2023/06/05 20:46:04;;;;;;;6.2;4.5;;;;;;;14.9;93.36914;937.7062;;;;
2023/06/05 20:48:33;;;;;;;5.5;4.5;;;;;;;14.91;92.18457;937.7021;;;;
2023/06/05 20:50:57;;;;;;;5.7;4.7;;;;;;;14.89;92.73242;937.7256;;;;
2023/06/05 20:53:22;;;;;;;6;5.1;;;;;;;14.85;92.9541;937.6554;;;;
2023/06/05 20:55:47;;;;;;;5.4;4.9;;;;;;;14.76;93.62793;937.6975;;;;
2023/06/05 20:58:15;;;;;;;5.8;4.6;;;;;;;14.77;93.71094;937.7319;;;;
2023/06/05 21:00:40;;;;;;;4.8;4.2;;;;;;;14.84;92.26172;937.7308;;;;
2023/06/05 21:03:09;;;;;;;5.2;4.5;;;;;;;14.94;92.57129;937.7428;;;;
2023/06/05 21:05:31;;;;;;;5.7;4.8;;;;;;;14.97;93.5459;937.6978;;;;
2023/06/05 21:08:00;;;;;;;5.1;4.6;;;;;;;14.73;93.77246;937.7057;;;;
2023/06/05 21:10:26;;;;;;;5.4;4.9;;;;;;;14.72;93.81445;937.7859;;;;
2023/06/05 21:12:53;;;;;;;6.4;4.9;;;;;;;14.51;94.93359;937.8416;;;;
2023/06/05 21:15:18;;;;;;;6.1;4.9;;;;;;;14.44;95.43652;937.8212;;;;
2023/06/05 21:17:47;;;;;;;5.3;4.8;;;;;;;14.43;95.70117;937.7659;;;;
2023/06/05 21:20:16;;;;;;;5.8;5;;;;;;;14.52;95.61523;937.7766;;;;
2023/06/05 21:22:41;;;;;;;5.5;4.9;;;;;;;14.54;95.87305;937.7541;;;;
2023/06/05 21:25:15;;;;;;;6.3;5.1;;;;;;;14.54;96.54102;937.7341;;;;
2023/06/05 21:27:44;;;;;;;5.7;4.9;;;;;;;14.52;96.20508;937.7165;;;;
2023/06/05 21:30:10;;;;;;;5.7;5.1;;;;;;;14.46;96.51172;937.6721;;;;
2023/06/05 21:32:41;;;;;;;6;5.4;;;;;;;14.6;95.75098;937.635;;;;
2023/06/05 21:35:15;;;;;;;6.3;5.4;;;;;;;14.51;95.38281;937.6476;;;;
2023/06/05 21:37:46;;;;;;;6.3;5.3;;;;;;;14.49;95.22949;937.5876;;;;
2023/06/05 21:40:10;;;;;;;6;4.7;;;;;;;14.36;95.91406;937.6376;;;;
2023/06/05 21:42:41;;;;;;;6.5;5;;;;;;;14.38;94.46875;937.6447;;;;
2023/06/05 21:45:06;;;;;;;6.3;5.1;;;;;;;14.34;94.12695;937.6738;;;;